Blythe Airport Blythe US
ICAO: KBLH
IATA: BLH
Category: Medium
Scheduled Services: No

Elevation: 399 ft
TransAlt. 18000 ft.

Airport Communications:
ASOS:120.175
LOS ANGELES CNTR:128.15
RIVERSIDE RDO:122.4
CTAF/UNICOM:122.8

KBLH Zoom In..

If you have problems with the map follow the link
https://www.worldairports.se/pages/airport.php?
ICAO=KBLH

Runways:

(A) RW 08 length 6543 ft width 150 ft
---- / hdg 77

(B) RW 17 length 5800 ft width 100 ft
---- / hdg 167

(C) RW 26 length 6543 ft width 150 ft
---- / hdg 257

(D) RW 35 length 5800 ft width 100 ft
---- / hdg 347

Location; KBLH
Day. 21 / Time. 17.52 Zulu
* Altimeter: 29.90
* Temperature: 27° c. 80.6°f.
* Wind from: 000° Speed 00 kn.
Dewpoint: 11° c.
Visibility: 10 Statute Miles.
Clouds: Clear (automated report).

KBLH 211752Z AUTO 00000KT 10SM CLR 27/11 A2990 RMK AO2 SLP121 T02670111 10267 20172 50001


Wind - Calm.

 
 
jpsmedia.com for Web Design worldairports.se 2018   terms of use